Grand Marais, Minnesota
Current Conditions -  °F | °C
As of 8:33 PM on Friday 24 Oct 2014 (Local Time) from KCKC Reporting Station
Clear Clear  
Wind Chill: 11°   Ceiling: Unl
Heat Index: 11°   Visibility: 10mi
Dew Point:   Wind: 5mph
Humidity: 82%   Direction: 220°SW
Pressure: 29.69"   Gusts: NA
Location:  47.75°N, 90.33°W
Report Text: KCKC 250133Z AUTO 22004KT 10SM CLR 11/08 A2969 RMK AO2
Loading
Personal Weather Stations






























Interactive Weather Map
Tropical Storm Tracking
New forecast layout! Learn more

10-Day Weather Forecast

Advertisements
Track Severe Weather on mobile